Moorland, Iowa
Current Conditions -  °F | °C
As of 12:35 AM on Friday 31 Oct 2014 (Local Time) from KFOD Reporting Station
Overcast Overcast  
Wind Chill: 30°   Ceiling: 3500
Heat Index: 37°   Visibility: 10mi
Dew Point: 23°   Wind: 10mph
Humidity: 56%   Direction: 350°N
Pressure: 30.35"   Gusts: 25mph
Location:  42.44°N, 94.29°W
Report Text: KFOD 310535Z AUTO 35009G22KT 330V040 10SM OVC035 03/M05 A3035 RMK AO1
Loading
Personal Weather Stations






























Interactive Weather Map
Tropical Storm Tracking
New forecast layout! Learn more

10-Day Weather Forecast

Advertisements
Track Severe Weather on mobile